ADDS METAR Data INFO
IDs: Format: Raw Decoded Include TAF

Data at: 0634 UTC 15 Dec 2017

KGMJ 150615Z AUTO 00000KT 10SM CLR M02/M03 A3016 RMK AO2
KGMJ 150555Z AUTO 00000KT 10SM CLR M01/M02 A3016 RMK AO2
KGMJ 150535Z AUTO 00000KT 10SM SCT050 M01/M02 A3016 RMK AO2
KGMJ 150515Z AUTO 00000KT 10SM BKN060 M01/M02 A3016 RMK AO2
KGMJ 150455Z AUTO 00000KT 10SM OVC060 M01/M02 A3016 RMK AO2
KGMJ 150435Z AUTO 00000KT 10SM BKN060 M01/M03 A3016 RMK AO2
KGMJ 150415Z AUTO 00000KT 10SM CLR M01/M03 A3017 RMK AO2
KGMJ 150355Z AUTO 00000KT 10SM SCT060 M01/M03 A3016 RMK AO2
KGMJ 150335Z AUTO 00000KT 10SM BKN060 M01/M02 A3016 RMK AO2
KGMJ 150315Z AUTO 00000KT 10SM SCT060 M02/M03 A3017 RMK AO2
KGMJ 150255Z AUTO 00000KT 10SM CLR M01/M02 A3016 RMK AO2
KGMJ 150235Z AUTO 00000KT 10SM CLR 00/M02 A3016 RMK AO2
KGMJ 150215Z AUTO 00000KT 10SM CLR 00/M02 A3016 RMK AO2
KGMJ 150200Z AUTO 00000KT 10SM CLR 00/M02 A3016 RMK AO2
KGMJ 150135Z AUTO 00000KT 10SM CLR 01/M02 A3015 RMK AO2
KGMJ 150115Z AUTO 00000KT 10SM CLR 01/M02 A3015 RMK AO2
KGMJ 150055Z AUTO 00000KT 10SM CLR 01/M02 A3015 RMK AO2
KGMJ 150035Z AUTO 00000KT 10SM CLR 01/M02 A3015 RMK AO2
KGMJ 150015Z AUTO 00000KT 10SM CLR 02/M02 A3014 RMK AO2
KGMJ 142355Z AUTO 00000KT 10SM CLR 04/M02 A3014 RMK AO2
KGMJ 142335Z AUTO 00000KT 10SM CLR 04/M02 A3013 RMK AO2
KGMJ 142315Z AUTO 00000KT 10SM CLR 05/M02 A3011 RMK AO2
KGMJ 142255Z AUTO 00000KT 10SM SCT044 05/M02 A3012 RMK AO2
KGMJ 142235Z AUTO 00000KT 10SM BKN044 06/M02 A3011 RMK AO2
KGMJ 142215Z AUTO 32003KT 10SM BKN044 06/M01 A3012 RMK AO2
KGMJ 142155Z AUTO 34005KT 10SM OVC044 06/M01 A3012 RMK AO2
KGMJ 142135Z AUTO 34004KT 10SM OVC044 06/M01 A3012 RMK AO2
KGMJ 142115Z AUTO 32003KT 10SM OVC046 06/M01 A3011 RMK AO2
KGMJ 142055Z AUTO 32005KT 10SM OVC046 06/M01 A3012 RMK AO2
KGMJ 142035Z AUTO 34005KT 10SM OVC044 06/M01 A3012 RMK AO2
KGMJ 142015Z AUTO 32005KT 10SM OVC044 06/M01 A3012 RMK AO2
KGMJ 141955Z AUTO 31003KT 10SM OVC044 06/M01 A3012 RMK AO2
KGMJ 141935Z AUTO 32003KT 10SM OVC044 06/M01 A3012 RMK AO2
KGMJ 141915Z AUTO 33005KT 10SM OVC042 06/M01 A3013 RMK AO2
KGMJ 141855Z AUTO 34005KT 10SM OVC042 06/M01 A3013 RMK AO2
KGMJ 141835Z AUTO 33005KT 10SM OVC042 06/M01 A3012 RMK AO2
KGMJ 141815Z AUTO 34004KT 10SM OVC042 06/M01 A3013 RMK AO2
KGMJ 141755Z AUTO 33005KT 10SM OVC042 06/M01 A3013 RMK AO2
KGMJ 141735Z AUTO 00000KT 10SM BKN040 06/M01 A3013 RMK AO2
KGMJ 141715Z AUTO 01004KT 10SM OVC040 06/M01 A3013 RMK AO2
KGMJ 141655Z AUTO 00000KT 10SM SCT042 SCT055 SCT090 06/M01 A3014 RMK AO2
KGMJ 141635Z AUTO 00000KT 10SM CLR 05/00 A3014 RMK AO2
KGMJ 141615Z AUTO 00000KT 10SM CLR 04/00 A3013 RMK AO2
KGMJ 141555Z AUTO 00000KT 10SM CLR 03/00 A3012 RMK AO2
KGMJ 141535Z AUTO 04003KT 10SM CLR 03/00 A3011 RMK AO2
KGMJ 141515Z AUTO 00000KT 10SM CLR 03/00 A3011 RMK AO2
KGMJ 141455Z AUTO 00000KT 10SM CLR 02/00 A3011 RMK AO2
KGMJ 141435Z AUTO 00000KT 10SM CLR 02/00 A3011 RMK AO2
KGMJ 141415Z AUTO 00000KT 10SM CLR 01/M01 A3011 RMK AO2
KGMJ 141355Z AUTO 00000KT 10SM CLR 01/M01 A3009 RMK AO2
KGMJ 141335Z AUTO 01003KT 10SM CLR 01/M01 A3006 RMK AO2
KGMJ 141315Z AUTO 01004KT 10SM CLR 01/M01 A3006 RMK AO2
KGMJ 141255Z AUTO 00000KT 10SM CLR 01/M01 A3007 RMK AO2
KGMJ 141235Z AUTO 00000KT 10SM CLR 00/M01 A3006 RMK AO2
KGMJ 141215Z AUTO 00000KT 10SM CLR 01/00 A3005 RMK AO2
KGMJ 141155Z AUTO 00000KT 10SM CLR 01/M01 A3004 RMK AO2
KGMJ 141135Z AUTO 00000KT 10SM CLR 02/M01 A3004 RMK AO2
KGMJ 141115Z AUTO 00000KT 10SM CLR 02/M01 A3003 RMK AO2
KGMJ 141055Z AUTO 00000KT 10SM CLR 02/M01 A3002 RMK AO2
KGMJ 141035Z AUTO 00000KT 10SM CLR 02/M01 A3002 RMK AO2
KGMJ 141015Z AUTO 00000KT 10SM CLR 02/M01 A3002 RMK AO2
KGMJ 140955Z AUTO 00000KT 10SM CLR 03/M01 A3001 RMK AO2
KGMJ 140935Z AUTO 00000KT 10SM CLR 04/M01 A3000 RMK AO2
KGMJ 140915Z AUTO 00000KT 10SM CLR 05/00 A3000 RMK AO2
KGMJ 140855Z AUTO 00000KT 10SM CLR 06/00 A3000 RMK AO2
KGMJ 140835Z AUTO 00000KT 10SM CLR 06/00 A2999 RMK AO2
KGMJ 140815Z AUTO 03004KT 10SM CLR 06/00 A2999 RMK AO2
KGMJ 140755Z AUTO 01005KT 10SM CLR 07/00 A2998 RMK AO2
KGMJ 140735Z AUTO 36003KT 10SM CLR 07/00 A2996 RMK AO2
KGMJ 140715Z AUTO 35004KT 10SM CLR 06/00 A2996 RMK AO2
KGMJ 140655Z AUTO 34005KT 10SM CLR 06/00 A2996 RMK AO2
KGMJ 140635Z AUTO 36004KT 10SM CLR 07/00 A2995 RMK AO2
KGMJ 140615Z AUTO 34003KT 10SM CLR 07/00 A2995 RMK AO2
KGMJ 140555Z AUTO 36003KT 10SM CLR 07/00 A2994 RMK AO2
KGMJ 140535Z AUTO 34003KT 10SM CLR 06/M01 A2994 RMK AO2
KGMJ 140515Z AUTO 00000KT 10SM CLR 06/M01 A2994 RMK AO2
KGMJ 140455Z AUTO 00000KT 10SM CLR 06/M01 A2993 RMK AO2
KGMJ 140435Z AUTO 00000KT 10SM CLR 06/M01 A2993 RMK AO2
KGMJ 140415Z AUTO 35003KT 10SM CLR 06/M01 A2992 RMK AO2
KGMJ 140355Z AUTO 33004KT 10SM CLR 05/M01 A2992 RMK AO2
KGMJ 140335Z AUTO 33003KT 10SM CLR 06/M01 A2991 RMK AO2
KGMJ 140315Z AUTO 00000KT 10SM CLR 07/M01 A2991 RMK AO2
KGMJ 140255Z AUTO 00000KT 10SM CLR 07/M01 A2991 RMK AO2
KGMJ 140235Z AUTO 00000KT 10SM CLR 08/M01 A2990 RMK AO2
KGMJ 140215Z AUTO 00000KT 10SM CLR 09/00 A2990 RMK AO2
KGMJ 140155Z AUTO 00000KT 10SM CLR 07/00 A2989 RMK AO2
KGMJ 140135Z AUTO 29003KT 10SM CLR 07/00 A2988 RMK AO2
KGMJ 140115Z AUTO 24003KT 10SM CLR 07/00 A2988 RMK AO2
KGMJ 140055Z AUTO 26003KT 10SM CLR 07/00 A2987 RMK AO2
KGMJ 140035Z AUTO 00000KT 10SM CLR 07/00 A2986 RMK AO2
KGMJ 140015Z AUTO 00000KT 10SM CLR 10/M01 A2986 RMK AO2
KGMJ 132355Z AUTO 00000KT 10SM CLR 12/M01 A2986 RMK AO2
KGMJ 132335Z AUTO 00000KT 10SM CLR 12/M01 A2985 RMK AO2
KGMJ 132315Z AUTO 31004KT 10SM CLR 13/M01 A2985 RMK AO2
KGMJ 132255Z AUTO 27003KT 10SM CLR 15/00 A2984 RMK AO2
KGMJ 132235Z AUTO 00000KT 10SM CLR 15/00 A2984 RMK AO2
KGMJ 132215Z AUTO 26004KT 10SM CLR 16/00 A2984 RMK AO2
KGMJ 132155Z AUTO 26006KT 10SM CLR 16/00 A2984 RMK AO2
KGMJ 132135Z AUTO 28005KT 10SM CLR 16/M01 A2984 RMK AO2
KGMJ 132115Z AUTO 27006KT 10SM CLR 16/M01 A2984 RMK AO2
KGMJ 132055Z AUTO 27006KT 10SM CLR 16/M01 A2984 RMK AO2
KGMJ 132035Z AUTO 27007KT 10SM CLR 15/M01 A2984 RMK AO2
KGMJ 132015Z AUTO 26006KT 10SM CLR 15/M01 A2984 RMK AO2
KGMJ 131955Z AUTO 27005KT 10SM CLR 15/M01 A2984 RMK AO2
KGMJ 131935Z AUTO 26004KT 10SM CLR 13/00 A2985 RMK AO2
KGMJ 131915Z AUTO 25004KT 10SM CLR 12/00 A2986 RMK AO2
KGMJ 131855Z AUTO 24007KT 10SM CLR 12/00 A2986 RMK AO2
KGMJ 131835Z AUTO 25006KT 10SM CLR 12/M01 A2987 RMK AO2